sensor_id;sensor_type;location;lat;lon;timestamp;pressure;altitude;pressure_sealevel;temperature;humidity
78843;BME280;70542;53.774;-0.352;2024-01-10T00:01:06;103620;;;2;51
78843;BME280;70542;53.774;-0.352;2024-01-10T00:06:46;103610;;;3;51
78843;BME280;70542;53.774;-0.352;2024-01-10T00:12:26;103600;;;3;51
78843;BME280;70542;53.774;-0.352;2024-01-10T00:18:05;103600;;;4;50
78843;BME280;70542;53.774;-0.352;2024-01-10T00:23:48;103600;;;4;50
78843;BME280;70542;53.774;-0.352;2024-01-10T00:29:27;103590;;;4;50
78843;BME280;70542;53.774;-0.352;2024-01-10T00:37:22;103580;;;4;50
78843;BME280;70542;53.774;-0.352;2024-01-10T00:43:03;103580;;;3;51
78843;BME280;70542;53.774;-0.352;2024-01-10T00:48:42;103570;;;4;51
78843;BME280;70542;53.774;-0.352;2024-01-10T00:54:27;103570;;;3;53
78843;BME280;70542;53.774;-0.352;2024-01-10T01:00:08;103560;;;3;54
78843;BME280;70542;53.774;-0.352;2024-01-10T01:05:54;103560;;;3;53
78843;BME280;70542;53.774;-0.352;2024-01-10T01:11:38;103550;;;4;53
78843;BME280;70542;53.774;-0.352;2024-01-10T01:17:17;103550;;;3;53
78843;BME280;70542;53.774;-0.352;2024-01-10T01:22:58;103550;;;4;53
78843;BME280;70542;53.774;-0.352;2024-01-10T01:28:39;103550;;;4;52
78843;BME280;70542;53.774;-0.352;2024-01-10T01:34:23;103550;;;4;53
78843;BME280;70542;53.774;-0.352;2024-01-10T01:40:02;103550;;;4;54
78843;BME280;70542;53.774;-0.352;2024-01-10T01:46:20;103550;;;4;52
78843;BME280;70542;53.774;-0.352;2024-01-10T01:52:00;103550;;;4;53
78843;BME280;70542;53.774;-0.352;2024-01-10T01:57:41;103540;;;4;52
78843;BME280;70542;53.774;-0.352;2024-01-10T02:03:28;103540;;;4;52
78843;BME280;70542;53.774;-0.352;2024-01-10T02:09:08;103540;;;4;53
78843;BME280;70542;53.774;-0.352;2024-01-10T02:14:54;103540;;;5;51
78843;BME280;70542;53.774;-0.352;2024-01-10T02:20:36;103540;;;6;48
78843;BME280;70542;53.774;-0.352;2024-01-10T02:26:18;103550;;;5;50
78843;BME280;70542;53.774;-0.352;2024-01-10T02:32:00;103540;;;5;50
78843;BME280;70542;53.774;-0.352;2024-01-10T02:37:40;103550;;;6;48
78843;BME280;70542;53.774;-0.352;2024-01-10T02:43:25;103540;;;6;46
78843;BME280;70542;53.774;-0.352;2024-01-10T02:49:04;103540;;;4;52
78843;BME280;70542;53.774;-0.352;2024-01-10T02:54:46;103530;;;5;51
78843;BME280;70542;53.774;-0.352;2024-01-10T03:00:31;103530;;;5;50
78843;BME280;70542;53.774;-0.352;2024-01-10T03:06:15;103530;;;5;51
78843;BME280;70542;53.774;-0.352;2024-01-10T03:11:58;103520;;;6;50
78843;BME280;70542;53.774;-0.352;2024-01-10T03:17:37;103520;;;5;52
78843;BME280;70542;53.774;-0.352;2024-01-10T03:23:19;103530;;;5;53
78843;BME280;70542;53.774;-0.352;2024-01-10T03:28:58;103530;;;5;53
78843;BME280;70542;53.774;-0.352;2024-01-10T03:34:37;103520;;;6;52
78843;BME280;70542;53.774;-0.352;2024-01-10T03:40:17;103510;;;6;50
78843;BME280;70542;53.774;-0.352;2024-01-10T03:45:57;103510;;;6;51
78843;BME280;70542;53.774;-0.352;2024-01-10T03:51:49;103500;;;6;50
78843;BME280;70542;53.774;-0.352;2024-01-10T03:57:34;103500;;;7;47
78843;BME280;70542;53.774;-0.352;2024-01-10T04:03:15;103490;;;8;44
78843;BME280;70542;53.774;-0.352;2024-01-10T04:09:02;103480;;;8;44
78843;BME280;70542;53.774;-0.352;2024-01-10T04:14:52;103480;;;8;43
78843;BME280;70542;53.774;-0.352;2024-01-10T04:20:42;103470;;;8;42
78843;BME280;70542;53.774;-0.352;2024-01-10T04:26:24;103470;;;8;46
78843;BME280;70542;53.774;-0.352;2024-01-10T04:32:04;103470;;;7;45
78843;BME280;70542;53.774;-0.352;2024-01-10T04:37:55;103470;;;8;44
78843;BME280;70542;53.774;-0.352;2024-01-10T04:43:34;103460;;;8;45
78843;BME280;70542;53.774;-0.352;2024-01-10T04:49:12;103460;;;9;42
78843;BME280;70542;53.774;-0.352;2024-01-10T04:54:52;103460;;;9;42
78843;BME280;70542;53.774;-0.352;2024-01-10T05:00:31;103460;;;10;41
78843;BME280;70542;53.774;-0.352;2024-01-10T05:06:23;103460;;;9;43
78843;BME280;70542;53.774;-0.352;2024-01-10T05:12:04;103460;;;7;48
78843;BME280;70542;53.774;-0.352;2024-01-10T05:17:50;103450;;;7;49
78843;BME280;70542;53.774;-0.352;2024-01-10T05:23:30;103450;;;6;50
78843;BME280;70542;53.774;-0.352;2024-01-10T05:29:09;103450;;;6;52
78843;BME280;70542;53.774;-0.352;2024-01-10T05:34:52;103440;;;6;54
78843;BME280;70542;53.774;-0.352;2024-01-10T05:40:41;103430;;;6;54
78843;BME280;70542;53.774;-0.352;2024-01-10T05:46:26;103430;;;6;54
78843;BME280;70542;53.774;-0.352;2024-01-10T05:52:07;103440;;;6;52
78843;BME280;70542;53.774;-0.352;2024-01-10T05:57:46;103430;;;5;55
78843;BME280;70542;53.774;-0.352;2024-01-10T06:03:25;103420;;;4;59
78843;BME280;70542;53.774;-0.352;2024-01-10T06:09:04;103430;;;5;56
78843;BME280;70542;53.774;-0.352;2024-01-10T06:14:54;103430;;;6;54
78843;BME280;70542;53.774;-0.352;2024-01-10T06:20:33;103420;;;7;52
78843;BME280;70542;53.774;-0.352;2024-01-10T06:26:12;103420;;;6;52
78843;BME280;70542;53.774;-0.352;2024-01-10T06:31:51;103420;;;7;50
78843;BME280;70542;53.774;-0.352;2024-01-10T06:37:30;103410;;;7;49
78843;BME280;70542;53.774;-0.352;2024-01-10T06:43:09;103420;;;8;46
78843;BME280;70542;53.774;-0.352;2024-01-10T06:48:48;103410;;;8;45
78843;BME280;70542;53.774;-0.352;2024-01-10T06:54:28;103410;;;7;47
78843;BME280;70542;53.774;-0.352;2024-01-10T07:00:09;103410;;;7;49
78843;BME280;70542;53.774;-0.352;2024-01-10T07:05:59;103410;;;6;49
78843;BME280;70542;53.774;-0.352;2024-01-10T07:11:38;103400;;;7;47
78843;BME280;70542;53.774;-0.352;2024-01-10T07:17:17;103400;;;8;46
78843;BME280;70542;53.774;-0.352;2024-01-10T07:23:02;103410;;;8;45
78843;BME280;70542;53.774;-0.352;2024-01-10T07:28:41;103400;;;8;44
78843;BME280;70542;53.774;-0.352;2024-01-10T07:34:30;103400;;;8;45
78843;BME280;70542;53.774;-0.352;2024-01-10T07:40:09;103400;;;8;45
78843;BME280;70542;53.774;-0.352;2024-01-10T07:45:49;103410;;;8;45
78843;BME280;70542;53.774;-0.352;2024-01-10T07:51:28;103420;;;8;45
78843;BME280;70542;53.774;-0.352;2024-01-10T07:57:08;103420;;;7;47
78843;BME280;70542;53.774;-0.352;2024-01-10T08:02:48;103420;;;8;45
78843;BME280;70542;53.774;-0.352;2024-01-10T08:08:27;103420;;;7;47
78843;BME280;70542;53.774;-0.352;2024-01-10T08:14:06;103420;;;7;47
78843;BME280;70542;53.774;-0.352;2024-01-10T08:19:45;103420;;;8;45
78843;BME280;70542;53.774;-0.352;2024-01-10T08:25:24;103420;;;8;45
78843;BME280;70542;53.774;-0.352;2024-01-10T08:31:12;103420;;;8;44
78843;BME280;70542;53.774;-0.352;2024-01-10T08:36:59;103420;;;8;44
78843;BME280;70542;53.774;-0.352;2024-01-10T08:42:38;103420;;;8;44
78843;BME280;70542;53.774;-0.352;2024-01-10T08:48:17;103420;;;9;43
78843;BME280;70542;53.774;-0.352;2024-01-10T08:54:04;103420;;;8;46
78843;BME280;70542;53.774;-0.352;2024-01-10T08:59:43;103430;;;8;45
78843;BME280;70542;53.774;-0.352;2024-01-10T09:05:23;103420;;;8;45
78843;BME280;70542;53.774;-0.352;2024-01-10T09:11:01;103420;;;9;45
78843;BME280;70542;53.774;-0.352;2024-01-10T09:16:40;103420;;;9;44
78843;BME280;70542;53.774;-0.352;2024-01-10T09:22:19;103420;;;9;44
78843;BME280;70542;53.774;-0.352;2024-01-10T09:27:59;103420;;;9;44
78843;BME280;70542;53.774;-0.352;2024-01-10T09:33:38;103420;;;10;43
78843;BME280;70542;53.774;-0.352;2024-01-10T09:39:22;103420;;;10;43
78843;BME280;70542;53.774;-0.352;2024-01-10T09:45:03;103420;;;10;43
78843;BME280;70542;53.774;-0.352;2024-01-10T09:50:54;103420;;;9;44
78843;BME280;70542;53.774;-0.352;2024-01-10T09:56:34;103430;;;8;48
78843;BME280;70542;53.774;-0.352;2024-01-10T10:02:15;103430;;;9;46
78843;BME280;70542;53.774;-0.352;2024-01-10T10:07:58;103420;;;9;46
78843;BME280;70542;53.774;-0.352;2024-01-10T10:13:45;103420;;;8;47
78843;BME280;70542;53.774;-0.352;2024-01-10T10:19:24;103420;;;9;47
78843;BME280;70542;53.774;-0.352;2024-01-10T10:25:09;103420;;;10;44
78843;BME280;70542;53.774;-0.352;2024-01-10T10:30:52;103420;;;10;44
78843;BME280;70542;53.774;-0.352;2024-01-10T10:36:31;103410;;;10;44
78843;BME280;70542;53.774;-0.352;2024-01-10T10:42:10;103400;;;9;45
78843;BME280;70542;53.774;-0.352;2024-01-10T10:47:50;103400;;;10;45
78843;BME280;70542;53.774;-0.352;2024-01-10T10:53:36;103400;;;10;44
78843;BME280;70542;53.774;-0.352;2024-01-10T10:59:16;103400;;;10;47
78843;BME280;70542;53.774;-0.352;2024-01-10T11:04:58;103390;;;9;50
78843;BME280;70542;53.774;-0.352;2024-01-10T11:10:40;103400;;;7;54
78843;BME280;70542;53.774;-0.352;2024-01-10T11:16:37;103390;;;6;55
78843;BME280;70542;53.774;-0.352;2024-01-10T11:22:31;103390;;;7;55
78843;BME280;70542;53.774;-0.352;2024-01-10T11:28:17;103380;;;6;56
78843;BME280;70542;53.774;-0.352;2024-01-10T11:34:01;103380;;;6;55
78843;BME280;70542;53.774;-0.352;2024-01-10T11:39:41;103380;;;6;54
78843;BME280;70542;53.774;-0.352;2024-01-10T11:51:14;103380;;;7;54
78843;BME280;70542;53.774;-0.352;2024-01-10T11:56:54;103380;;;7;54
78843;BME280;70542;53.774;-0.352;2024-01-10T12:02:33;103380;;;7;54
78843;BME280;70542;53.774;-0.352;2024-01-10T12:08:14;103370;;;7;54
78843;BME280;70542;53.774;-0.352;2024-01-10T12:14:08;103370;;;7;55
78843;BME280;70542;53.774;-0.352;2024-01-10T12:19:47;103370;;;7;56
78843;BME280;70542;53.774;-0.352;2024-01-10T12:25:26;103360;;;7;54
78843;BME280;70542;53.774;-0.352;2024-01-10T12:31:19;103350;;;8;52
78843;BME280;70542;53.774;-0.352;2024-01-10T12:36:57;103330;;;8;52
78843;BME280;70542;53.774;-0.352;2024-01-10T12:42:40;103340;;;7;54
78843;BME280;70542;53.774;-0.352;2024-01-10T12:48:32;103330;;;7;52
78843;BME280;70542;53.774;-0.352;2024-01-10T12:54:21;103340;;;6;55
78843;BME280;70542;53.774;-0.352;2024-01-10T12:59:59;103340;;;7;54
78843;BME280;70542;53.774;-0.352;2024-01-10T13:05:43;103340;;;6;55
78843;BME280;70542;53.774;-0.352;2024-01-10T13:11:22;103330;;;7;56
78843;BME280;70542;53.774;-0.352;2024-01-10T13:17:06;103330;;;6;59
78843;BME280;70542;53.774;-0.352;2024-01-10T13:22:45;103330;;;6;58
78843;BME280;70542;53.774;-0.352;2024-01-10T13:28:52;103330;;;7;56
78843;BME280;70542;53.774;-0.352;2024-01-10T13:34:33;103330;;;6;56
78843;BME280;70542;53.774;-0.352;2024-01-10T13:40:12;103320;;;7;55
78843;BME280;70542;53.774;-0.352;2024-01-10T13:45:59;103320;;;7;56
78843;BME280;70542;53.774;-0.352;2024-01-10T13:51:38;103320;;;6;56
78843;BME280;70542;53.774;-0.352;2024-01-10T13:57:22;103320;;;5;57
78843;BME280;70542;53.774;-0.352;2024-01-10T14:03:03;103320;;;6;55
78843;BME280;70542;53.774;-0.352;2024-01-10T14:08:47;103320;;;6;56
78843;BME280;70542;53.774;-0.352;2024-01-10T14:14:39;103320;;;6;55
78843;BME280;70542;53.774;-0.352;2024-01-10T14:20:23;103320;;;6;55
78843;BME280;70542;53.774;-0.352;2024-01-10T14:26:04;103310;;;6;56
78843;BME280;70542;53.774;-0.352;2024-01-10T14:31:43;103310;;;7;53
78843;BME280;70542;53.774;-0.352;2024-01-10T14:37:22;103320;;;6;58
78843;BME280;70542;53.774;-0.352;2024-01-10T14:43:05;103330;;;5;59
78843;BME280;70542;53.774;-0.352;2024-01-10T14:48:55;103320;;;5;58
78843;BME280;70542;53.774;-0.352;2024-01-10T14:54:36;103320;;;5;59
78843;BME280;70542;53.774;-0.352;2024-01-10T15:00:23;103320;;;5;60
78843;BME280;70542;53.774;-0.352;2024-01-10T15:06:03;103310;;;6;57
78843;BME280;70542;53.774;-0.352;2024-01-10T15:11:42;103320;;;6;56
78843;BME280;70542;53.774;-0.352;2024-01-10T15:17:21;103310;;;6;56
78843;BME280;70542;53.774;-0.352;2024-01-10T15:23:01;103310;;;6;55
78843;BME280;70542;53.774;-0.352;2024-01-10T15:28:40;103310;;;6;55
78843;BME280;70542;53.774;-0.352;2024-01-10T15:34:44;103320;;;6;56
78843;BME280;70542;53.774;-0.352;2024-01-10T15:40:23;103320;;;6;54
78843;BME280;70542;53.774;-0.352;2024-01-10T15:46:02;103320;;;7;53
78843;BME280;70542;53.774;-0.352;2024-01-10T15:51:48;103320;;;7;53
78843;BME280;70542;53.774;-0.352;2024-01-10T15:57:27;103330;;;6;55
78843;BME280;70542;53.774;-0.352;2024-01-10T16:03:11;103340;;;5;55
78843;BME280;70542;53.774;-0.352;2024-01-10T16:08:50;103340;;;5;55
78843;BME280;70542;53.774;-0.352;2024-01-10T16:14:36;103330;;;6;52
78843;BME280;70542;53.774;-0.352;2024-01-10T16:20:19;103340;;;6;50
78843;BME280;70542;53.774;-0.352;2024-01-10T16:26:13;103340;;;7;49
78843;BME280;70542;53.774;-0.352;2024-01-10T16:31:52;103350;;;7;48
78843;BME280;70542;53.774;-0.352;2024-01-10T16:37:32;103350;;;7;48
78843;BME280;70542;53.774;-0.352;2024-01-10T16:43:12;103350;;;7;48
78843;BME280;70542;53.774;-0.352;2024-01-10T16:48:51;103360;;;7;48
78843;BME280;70542;53.774;-0.352;2024-01-10T16:54:30;103360;;;7;48
78843;BME280;70542;53.774;-0.352;2024-01-10T17:00:15;103370;;;8;46
78843;BME280;70542;53.774;-0.352;2024-01-10T17:05:54;103370;;;8;46
78843;BME280;70542;53.774;-0.352;2024-01-10T17:11:42;103370;;;7;46
78843;BME280;70542;53.774;-0.352;2024-01-10T17:17:21;103370;;;7;47
78843;BME280;70542;53.774;-0.352;2024-01-10T17:23:14;103380;;;7;48
78843;BME280;70542;53.774;-0.352;2024-01-10T17:28:59;103370;;;7;49
78843;BME280;70542;53.774;-0.352;2024-01-10T17:34:38;103380;;;6;52
78843;BME280;70542;53.774;-0.352;2024-01-10T17:40:22;103390;;;7;49
78843;BME280;70542;53.774;-0.352;2024-01-10T17:46:02;103400;;;6;51
78843;BME280;70542;53.774;-0.352;2024-01-10T17:51:40;103410;;;6;52
78843;BME280;70542;53.774;-0.352;2024-01-10T17:57:25;103420;;;6;56
78843;BME280;70542;53.774;-0.352;2024-01-10T18:03:04;103420;;;6;56
78843;BME280;70542;53.774;-0.352;2024-01-10T18:08:42;103420;;;5;59
78843;BME280;70542;53.774;-0.352;2024-01-10T18:14:21;103420;;;5;59
78843;BME280;70542;53.774;-0.352;2024-01-10T18:20:01;103420;;;5;59
78843;BME280;70542;53.774;-0.352;2024-01-10T18:25:52;103420;;;5;59
78843;BME280;70542;53.774;-0.352;2024-01-10T18:31:31;103420;;;4;60
78843;BME280;70542;53.774;-0.352;2024-01-10T18:37:10;103420;;;6;57
78843;BME280;70542;53.774;-0.352;2024-01-10T18:42:56;103430;;;4;59
78843;BME280;70542;53.774;-0.352;2024-01-10T18:48:39;103440;;;5;56
78843;BME280;70542;53.774;-0.352;2024-01-10T18:54:23;103440;;;5;57
78843;BME280;70542;53.774;-0.352;2024-01-10T19:00:03;103450;;;5;55
78843;BME280;70542;53.774;-0.352;2024-01-10T19:05:42;103460;;;6;53
78843;BME280;70542;53.774;-0.352;2024-01-10T19:11:26;103460;;;6;52
78843;BME280;70542;53.774;-0.352;2024-01-10T19:17:06;103460;;;6;51
78843;BME280;70542;53.774;-0.352;2024-01-10T19:22:46;103470;;;6;51
78843;BME280;70542;53.774;-0.352;2024-01-10T19:28:31;103480;;;6;49
78843;BME280;70542;53.774;-0.352;2024-01-10T19:34:17;103480;;;6;50
78843;BME280;70542;53.774;-0.352;2024-01-10T19:39:57;103480;;;7;48
78843;BME280;70542;53.774;-0.352;2024-01-10T19:45:36;103480;;;6;50
78843;BME280;70542;53.774;-0.352;2024-01-10T19:51:15;103480;;;6;50
78843;BME280;70542;53.774;-0.352;2024-01-10T19:56:56;103500;;;5;51
78843;BME280;70542;53.774;-0.352;2024-01-10T20:02:36;103500;;;6;50
78843;BME280;70542;53.774;-0.352;2024-01-10T20:08:17;103500;;;5;52
78843;BME280;70542;53.774;-0.352;2024-01-10T20:14:09;103510;;;4;53
78843;BME280;70542;53.774;-0.352;2024-01-10T20:19:53;103500;;;5;52
78843;BME280;70542;53.774;-0.352;2024-01-10T20:43:14;103520;;;5;51
78843;BME280;70542;53.774;-0.352;2024-01-10T20:48:56;103520;;;6;48
78843;BME280;70542;53.774;-0.352;2024-01-10T20:54:52;103520;;;6;48
78843;BME280;70542;53.774;-0.352;2024-01-10T21:00:32;103530;;;6;49
78843;BME280;70542;53.774;-0.352;2024-01-10T21:11:38;103540;;;6;47
78843;BME280;70542;53.774;-0.352;2024-01-10T21:17:24;103540;;;6;48
78843;BME280;70542;53.774;-0.352;2024-01-10T21:23:05;103540;;;6;49
78843;BME280;70542;53.774;-0.352;2024-01-10T21:28:46;103550;;;6;49
78843;BME280;70542;53.774;-0.352;2024-01-10T21:34:30;103550;;;6;47
78843;BME280;70542;53.774;-0.352;2024-01-10T21:40:10;103560;;;7;48
78843;BME280;70542;53.774;-0.352;2024-01-10T21:45:56;103550;;;6;48
78843;BME280;70542;53.774;-0.352;2024-01-10T21:51:44;103560;;;6;48
78843;BME280;70542;53.774;-0.352;2024-01-10T21:57:25;103560;;;6;50
78843;BME280;70542;53.774;-0.352;2024-01-10T22:03:05;103570;;;6;48
78843;BME280;70542;53.774;-0.352;2024-01-10T22:08:48;103580;;;5;50
78843;BME280;70542;53.774;-0.352;2024-01-10T22:14:29;103590;;;6;49
78843;BME280;70542;53.774;-0.352;2024-01-10T22:20:10;103590;;;7;47
78843;BME280;70542;53.774;-0.352;2024-01-10T22:25:54;103590;;;6;47
78843;BME280;70542;53.774;-0.352;2024-01-10T22:31:33;103600;;;6;48
78843;BME280;70542;53.774;-0.352;2024-01-10T22:37:13;103610;;;6;48
78843;BME280;70542;53.774;-0.352;2024-01-10T22:43:07;103620;;;6;48
78843;BME280;70542;53.774;-0.352;2024-01-10T22:48:54;103620;;;6;47
78843;BME280;70542;53.774;-0.352;2024-01-10T22:55:02;103620;;;7;45
78843;BME280;70542;53.774;-0.352;2024-01-10T23:00:57;103630;;;6;47
78843;BME280;70542;53.774;-0.352;2024-01-10T23:06:57;103630;;;6;49
78843;BME280;70542;53.774;-0.352;2024-01-10T23:12:38;103630;;;6;49
78843;BME280;70542;53.774;-0.352;2024-01-10T23:18:23;103630;;;5;50
78843;BME280;70542;53.774;-0.352;2024-01-10T23:24:10;103640;;;4;50
78843;BME280;70542;53.774;-0.352;2024-01-10T23:29:53;103640;;;5;50
78843;BME280;70542;53.774;-0.352;2024-01-10T23:35:41;103650;;;5;50
78843;BME280;70542;53.774;-0.352;2024-01-10T23:41:26;103660;;;5;49
78843;BME280;70542;53.774;-0.352;2024-01-10T23:47:10;103660;;;5;49
78843;BME280;70542;53.774;-0.352;2024-01-10T23:52:55;103660;;;5;49
78843;BME280;70542;53.774;-0.352;2024-01-10T23:58:37;103670;;;5;50
